createdAt,value
2023-02-12T00:01:28.804Z,9.35
2023-02-12T00:03:57.597Z,8.23
2023-02-12T00:06:26.136Z,6.80
2023-02-12T00:08:55.928Z,11.00
2023-02-12T00:11:26.275Z,5.90
2023-02-12T00:13:54.949Z,8.50
2023-02-12T00:16:25.804Z,8.05
2023-02-12T00:18:57.649Z,9.80
2023-02-12T00:21:26.620Z,8.45
2023-02-12T00:23:55.206Z,7.25
2023-02-12T00:26:23.864Z,18.95
2023-02-12T00:28:53.452Z,18.50
2023-02-12T00:31:23.844Z,13.38
2023-02-12T00:33:52.252Z,8.57
2023-02-12T00:36:26.006Z,7.20
2023-02-12T00:38:56.538Z,7.47
2023-02-12T00:41:27.171Z,4.65
2023-02-12T00:43:56.379Z,9.27
2023-02-12T00:46:27.053Z,11.80
2023-02-12T00:48:55.252Z,5.03
2023-02-12T00:51:24.815Z,6.25
2023-02-12T00:53:56.094Z,8.27
2023-02-12T00:56:24.361Z,9.02
2023-02-12T00:58:52.530Z,6.30
2023-02-12T01:01:20.819Z,10.30
2023-02-12T01:03:49.281Z,15.18
2023-02-12T01:06:17.465Z,9.48
2023-02-12T01:08:51.669Z,5.13
2023-02-12T01:11:20.805Z,11.18
2023-02-12T01:13:50.080Z,10.18
2023-02-12T01:16:20.401Z,8.45
2023-02-12T01:18:49.051Z,5.65
2023-02-12T01:21:19.043Z,7.05
2023-02-12T01:23:49.519Z,9.10
2023-02-12T01:26:20.032Z,7.35
2023-02-12T01:28:51.811Z,8.57
2023-02-12T01:31:22.697Z,6.15
2023-02-12T01:33:53.580Z,7.90
2023-02-12T01:36:22.462Z,8.27
2023-02-12T01:38:52.395Z,7.18
2023-02-12T01:41:23.170Z,5.57
2023-02-12T01:44:10.287Z,6.05
2023-02-12T01:46:40.166Z,6.90
2023-02-12T01:49:13.727Z,7.50
2023-02-12T01:51:48.736Z,3.30
2023-02-12T01:54:22.070Z,9.98
2023-02-12T01:56:50.640Z,9.98
2023-02-12T01:59:20.991Z,12.38
2023-02-12T02:01:49.381Z,7.57
2023-02-12T02:04:23.481Z,8.90
2023-02-12T02:06:57.318Z,8.70
2023-02-12T02:09:27.692Z,6.55
2023-02-12T02:12:14.322Z,7.22
2023-02-12T02:14:46.328Z,6.78
2023-02-12T02:17:43.310Z,5.57
2023-02-12T02:20:47.055Z,4.22
2023-02-12T02:23:52.710Z,9.82
2023-02-12T02:26:45.946Z,6.65
2023-02-12T02:29:43.123Z,7.57
2023-02-12T02:32:18.810Z,6.30
2023-02-12T02:34:54.454Z,7.25
2023-02-12T02:37:33.342Z,7.88
2023-02-12T02:40:10.075Z,4.75
2023-02-12T02:42:43.723Z,6.30
2023-02-12T02:45:16.542Z,7.30
2023-02-12T02:47:51.175Z,7.00
2023-02-12T02:50:22.324Z,4.97
2023-02-12T02:52:53.624Z,4.57
2023-02-12T02:55:25.149Z,6.40
2023-02-12T02:57:58.062Z,8.07
2023-02-12T03:00:34.776Z,6.72
2023-02-12T03:03:11.999Z,7.35
2023-02-12T03:05:43.439Z,9.75
2023-02-12T03:08:16.370Z,6.15
2023-02-12T03:10:50.059Z,7.88
2023-02-12T03:13:22.504Z,5.88
2023-02-12T03:15:55.833Z,7.38
2023-02-12T03:18:29.021Z,8.45
2023-02-12T03:21:01.824Z,7.38
2023-02-12T03:23:35.229Z,11.35
2023-02-12T03:26:08.977Z,8.18
2023-02-12T03:28:39.348Z,9.68
2023-02-12T03:31:15.144Z,9.88
2023-02-12T03:34:05.150Z,5.32
2023-02-12T03:36:39.270Z,5.65
2023-02-12T03:39:12.532Z,6.18
2023-02-12T03:41:45.103Z,9.75
2023-02-12T03:44:24.400Z,7.28
2023-02-12T03:47:01.034Z,7.05
2023-02-12T03:49:33.491Z,8.00
2023-02-12T03:52:01.873Z,5.18
2023-02-12T03:54:30.129Z,6.80
2023-02-12T03:57:04.477Z,5.65
2023-02-12T03:59:34.043Z,5.95
2023-02-12T04:02:02.291Z,6.55
2023-02-12T04:04:32.792Z,6.90
2023-02-12T04:07:01.570Z,7.25
2023-02-12T04:09:32.142Z,11.25
2023-02-12T04:12:13.465Z,6.95
2023-02-12T04:14:48.828Z,9.13
2023-02-12T04:17:23.508Z,5.72
2023-02-12T04:20:05.186Z,8.00
2023-02-12T04:22:46.773Z,7.43
2023-02-12T04:25:24.282Z,7.80
2023-02-12T04:27:58.650Z,8.23
2023-02-12T04:30:31.025Z,8.75
2023-02-12T04:33:05.419Z,8.82
2023-02-12T04:35:41.712Z,7.53
2023-02-12T04:38:14.585Z,11.15
2023-02-12T04:40:43.778Z,9.40
2023-02-12T04:43:12.415Z,6.93
2023-02-12T04:45:40.785Z,7.47
2023-02-12T04:48:08.979Z,7.85
2023-02-12T04:50:42.432Z,7.32
2023-02-12T04:53:11.695Z,10.68
2023-02-12T04:55:39.924Z,4.68
2023-02-12T04:58:08.205Z,6.93
2023-02-12T05:00:43.672Z,6.10
2023-02-12T05:03:11.950Z,7.85
2023-02-12T05:05:41.525Z,8.57
2023-02-12T05:08:09.691Z,3.55
2023-02-12T05:10:39.924Z,12.45
2023-02-12T05:13:08.085Z,4.28
2023-02-12T05:15:36.335Z,9.93
2023-02-12T05:18:04.618Z,4.90
2023-02-12T05:20:32.929Z,6.55
2023-02-12T05:23:02.477Z,6.93
2023-02-12T05:25:31.905Z,7.47
2023-02-12T05:28:00.266Z,4.68
2023-02-12T05:30:28.806Z,3.97
2023-02-12T05:32:56.955Z,5.60
2023-02-12T05:35:25.098Z,7.78
2023-02-12T05:37:53.280Z,6.43
2023-02-12T05:40:22.957Z,3.72
2023-02-12T05:42:51.134Z,7.28
2023-02-12T05:45:19.349Z,5.13
2023-02-12T05:47:47.508Z,5.55
2023-02-12T05:50:15.689Z,6.40
2023-02-12T05:52:43.845Z,6.55
2023-02-12T05:55:13.456Z,9.00
2023-02-12T05:57:43.057Z,5.53
2023-02-12T06:00:12.541Z,9.50
2023-02-12T06:02:40.809Z,7.22
2023-02-12T06:05:09.399Z,9.45
2023-02-12T06:07:37.578Z,5.85
2023-02-12T06:10:06.497Z,9.73
2023-02-12T06:12:34.681Z,6.40
2023-02-12T06:15:04.464Z,3.80
2023-02-12T06:17:32.728Z,5.53
2023-02-12T06:20:05.476Z,3.65
2023-02-12T06:22:33.621Z,7.03
2023-02-12T06:25:01.818Z,5.05
2023-02-12T06:27:29.991Z,4.78
2023-02-12T06:29:58.177Z,8.77
2023-02-12T06:32:27.720Z,7.82
2023-02-12T06:34:56.067Z,11.20
2023-02-12T06:37:24.239Z,14.82
2023-02-12T06:39:52.402Z,11.20
2023-02-12T06:42:20.906Z,9.35
2023-02-12T06:44:50.764Z,7.28
2023-02-12T06:47:20.808Z,8.65
2023-02-12T06:49:50.353Z,7.95
2023-02-12T06:52:18.537Z,11.60
2023-02-12T06:54:46.680Z,18.90
2023-02-12T06:57:15.280Z,10.35
2023-02-12T06:59:43.445Z,8.43
2023-02-12T07:02:12.276Z,11.20
2023-02-12T07:04:40.633Z,10.60
2023-02-12T07:07:10.238Z,10.32
2023-02-12T07:09:38.514Z,9.82
2023-02-12T07:12:07.970Z,8.55
2023-02-12T07:14:37.852Z,7.55
2023-02-12T07:17:07.893Z,3.90
2023-02-12T07:19:36.128Z,6.57
2023-02-12T07:22:04.655Z,4.63
2023-02-12T07:24:34.198Z,6.80
2023-02-12T07:27:02.386Z,2.90
2023-02-12T07:29:30.596Z,4.97
2023-02-12T07:32:00.920Z,5.60
2023-02-12T07:34:31.690Z,15.15
2023-02-12T07:36:59.909Z,9.27
2023-02-12T07:39:28.143Z,6.38
2023-02-12T07:41:58.224Z,5.18
2023-02-12T07:44:26.430Z,8.73
2023-02-12T07:46:56.932Z,6.75
2023-02-12T07:49:25.559Z,2.53
2023-02-12T07:51:55.519Z,6.43
2023-02-12T07:54:23.875Z,6.30
2023-02-12T07:56:52.181Z,3.42
2023-02-12T07:59:21.784Z,2.65
2023-02-12T08:01:51.859Z,3.83
2023-02-12T08:04:22.031Z,3.53
2023-02-12T08:06:55.025Z,7.13
2023-02-12T08:09:25.983Z,5.95
2023-02-12T08:11:54.912Z,4.63
2023-02-12T08:14:24.591Z,5.35
2023-02-12T08:16:53.033Z,6.07
2023-02-12T08:19:25.983Z,5.07
2023-02-12T08:21:56.155Z,5.43
2023-02-12T08:24:24.785Z,4.78
2023-02-12T08:26:53.289Z,2.83
2023-02-12T08:29:24.159Z,3.75
2023-02-12T08:31:58.656Z,2.92
2023-02-12T08:34:29.083Z,2.53
2023-02-12T08:36:58.277Z,2.92
2023-02-12T08:39:28.670Z,3.28
2023-02-12T08:41:59.951Z,1.83
2023-02-12T08:44:28.509Z,2.95
2023-02-12T08:46:58.111Z,1.83
2023-02-12T08:49:33.277Z,2.92
2023-02-12T08:52:08.307Z,3.28
2023-02-12T08:54:36.998Z,2.75
2023-02-12T08:57:05.323Z,3.67
2023-02-12T08:59:33.787Z,1.65
2023-02-12T09:02:08.629Z,0.88
2023-02-12T09:04:37.100Z,1.65
2023-02-12T09:07:10.388Z,1.95
2023-02-12T09:09:38.946Z,1.83
2023-02-12T09:12:07.324Z,3.13
2023-02-12T09:14:35.611Z,3.78
2023-02-12T09:17:05.237Z,1.63
2023-02-12T09:19:33.670Z,1.60
2023-02-12T09:22:01.837Z,2.03
2023-02-12T09:24:30.024Z,2.42
2023-02-12T09:26:58.253Z,1.55
2023-02-12T09:29:26.486Z,3.88
2023-02-12T09:31:55.100Z,7.43
2023-02-12T09:34:24.718Z,3.55
2023-02-12T09:36:52.910Z,2.53
2023-02-12T09:39:21.130Z,2.47
2023-02-12T09:42:17.722Z,3.38
2023-02-12T09:44:51.976Z,3.08
2023-02-12T09:47:26.868Z,2.70
2023-02-12T09:50:32.793Z,2.08
2023-02-12T09:53:01.792Z,3.22
2023-02-12T09:55:32.203Z,17.55
2023-02-12T09:58:01.991Z,5.47
2023-02-12T10:00:33.099Z,2.65
2023-02-12T10:03:06.664Z,3.10
2023-02-12T10:05:41.874Z,4.30
2023-02-12T10:08:32.803Z,7.03
2023-02-12T10:11:17.337Z,2.17
2023-02-12T10:13:56.173Z,2.42
2023-02-12T10:16:40.857Z,3.92
2023-02-12T10:19:23.834Z,2.47
2023-02-12T10:22:01.974Z,2.83
2023-02-12T10:24:48.238Z,5.25
2023-02-12T10:27:18.257Z,6.22
2023-02-12T10:29:48.346Z,3.72
2023-02-12T10:32:25.165Z,3.25
2023-02-12T10:34:54.821Z,4.65
2023-02-12T10:37:33.419Z,4.90
2023-02-12T10:40:07.178Z,3.67
2023-02-12T10:42:41.792Z,2.95
2023-02-12T10:45:18.324Z,3.42
2023-02-12T10:47:48.243Z,2.70
2023-02-12T10:50:25.659Z,4.90
2023-02-12T10:53:00.803Z,2.92
2023-02-12T10:55:31.228Z,2.78
2023-02-12T10:58:01.226Z,3.08
2023-02-12T11:00:33.022Z,4.55
2023-02-12T11:03:04.726Z,2.10
2023-02-12T11:05:35.948Z,3.13
2023-02-12T11:08:06.561Z,2.92
2023-02-12T11:10:39.192Z,5.65
2023-02-12T11:13:23.313Z,3.60
2023-02-12T11:15:51.949Z,3.90
2023-02-12T11:18:25.986Z,3.28
2023-02-12T11:20:56.933Z,3.17
2023-02-12T11:23:29.361Z,4.63
2023-02-12T11:26:01.307Z,4.90
2023-02-12T11:28:30.371Z,3.95
2023-02-12T11:31:01.627Z,5.15
2023-02-12T11:33:35.348Z,3.28
2023-02-12T11:36:08.950Z,3.97
2023-02-12T11:38:41.322Z,4.10
2023-02-12T11:41:24.963Z,4.63
2023-02-12T11:43:53.983Z,4.55
2023-02-12T11:46:24.667Z,3.63
2023-02-12T11:48:54.082Z,3.95
2023-02-12T11:51:29.237Z,3.10
2023-02-12T11:54:01.901Z,2.75
2023-02-12T11:56:42.764Z,4.00
2023-02-12T11:59:22.536Z,5.55
2023-02-12T12:01:55.539Z,6.20
2023-02-12T12:04:26.976Z,5.65
2023-02-12T12:07:01.145Z,4.95
2023-02-12T12:09:38.224Z,7.40
2023-02-12T12:12:17.235Z,3.33
2023-02-12T12:15:07.433Z,4.10
2023-02-12T12:18:01.076Z,4.93
2023-02-12T12:20:37.877Z,8.52
2023-02-12T12:23:12.202Z,4.75
2023-02-12T12:25:47.463Z,4.82
2023-02-12T12:28:31.556Z,3.80
2023-02-12T12:31:07.370Z,3.28
2023-02-12T12:33:41.775Z,6.38
2023-02-12T12:36:46.991Z,4.25
2023-02-12T12:39:28.076Z,4.40
2023-02-12T12:42:28.383Z,2.92
2023-02-12T12:45:18.231Z,8.10
2023-02-12T12:48:01.359Z,4.70
2023-02-12T12:50:49.857Z,4.43
2023-02-12T12:53:29.874Z,6.25
2023-02-12T12:56:20.776Z,4.55
2023-02-12T12:59:18.064Z,3.17
2023-02-12T13:02:04.809Z,4.72
2023-02-12T13:04:53.156Z,3.75
2023-02-12T13:07:39.596Z,4.82
2023-02-12T13:10:20.914Z,5.05
2023-02-12T13:13:06.991Z,3.53
2023-02-12T13:15:43.264Z,4.68
2023-02-12T13:18:20.460Z,3.85
2023-02-12T13:20:58.891Z,5.35
2023-02-12T13:23:36.760Z,12.20
2023-02-12T13:26:13.467Z,4.95
2023-02-12T13:28:48.771Z,6.68
2023-02-12T13:31:33.700Z,7.03
2023-02-12T13:34:05.845Z,6.78
2023-02-12T13:36:37.073Z,10.15
2023-02-12T13:39:11.332Z,16.42
2023-02-12T13:41:40.817Z,8.20
2023-02-12T13:44:17.604Z,10.60
2023-02-12T13:46:58.507Z,12.65
2023-02-12T13:49:40.413Z,10.80
2023-02-12T13:52:15.304Z,7.57
2023-02-12T13:54:53.448Z,11.00
2023-02-12T13:57:22.587Z,6.68
2023-02-12T13:59:53.636Z,11.38
2023-02-12T14:02:52.057Z,6.43
2023-02-12T14:05:29.611Z,7.15
2023-02-12T14:08:00.692Z,6.28
2023-02-12T14:10:32.698Z,11.57
2023-02-12T14:13:18.689Z,11.55
2023-02-12T14:15:52.371Z,6.57
2023-02-12T14:18:31.675Z,23.95
2023-02-12T14:21:43.463Z,10.45
2023-02-12T14:24:53.056Z,8.38
2023-02-12T14:27:35.055Z,13.20
2023-02-12T14:30:25.857Z,9.80
2023-02-12T14:33:13.274Z,13.18
2023-02-12T14:35:43.703Z,11.10
2023-02-12T14:38:56.757Z,5.75
2023-02-12T14:41:37.531Z,10.55
2023-02-12T14:44:42.290Z,8.60
2023-02-12T14:47:29.079Z,14.43
2023-02-12T14:50:02.447Z,13.63
2023-02-12T14:52:39.120Z,16.30
2023-02-12T14:55:19.519Z,11.52
2023-02-12T14:57:48.401Z,11.20
2023-02-12T15:00:26.519Z,11.35
2023-02-12T15:03:01.183Z,6.38
2023-02-12T15:05:38.131Z,5.70
2023-02-12T15:08:13.085Z,5.68
2023-02-12T15:10:47.233Z,8.15
2023-02-12T15:13:25.413Z,13.95
2023-02-12T15:15:56.841Z,12.88
2023-02-12T15:18:30.664Z,8.05
2023-02-12T15:21:05.507Z,9.48
2023-02-12T15:23:39.094Z,11.45
2023-02-12T15:26:13.208Z,9.88
2023-02-12T15:28:42.466Z,12.50
2023-02-12T15:31:11.794Z,11.02
2023-02-12T15:33:47.172Z,9.23
2023-02-12T15:36:19.739Z,9.77
2023-02-12T15:38:53.377Z,6.50
2023-02-12T15:41:30.564Z,8.88
2023-02-12T15:43:59.857Z,7.70
2023-02-12T15:46:28.474Z,7.47
2023-02-12T15:48:56.973Z,16.02
2023-02-12T15:51:30.784Z,9.80
2023-02-12T15:54:01.572Z,5.88
2023-02-12T15:56:31.906Z,11.15
2023-02-12T15:59:02.383Z,13.10
2023-02-12T16:01:32.984Z,11.02
2023-02-12T16:04:03.265Z,13.98
2023-02-12T16:06:34.625Z,14.23
2023-02-12T16:09:07.851Z,12.95
2023-02-12T16:11:37.904Z,15.00
2023-02-12T16:14:10.010Z,12.20
2023-02-12T16:16:45.988Z,11.55
2023-02-12T16:19:22.626Z,15.27
2023-02-12T16:21:54.383Z,11.45
2023-02-12T16:24:28.977Z,6.45
2023-02-12T16:26:58.536Z,11.70
2023-02-12T16:29:26.968Z,11.35
2023-02-12T16:31:57.839Z,10.32
2023-02-12T16:34:32.059Z,7.22
2023-02-12T16:37:03.355Z,9.73
2023-02-12T16:40:08.737Z,9.65
2023-02-12T16:42:38.757Z,5.55
2023-02-12T16:45:35.927Z,3.80
2023-02-12T16:48:12.239Z,6.93
2023-02-12T16:50:47.973Z,5.10
2023-02-12T16:53:47.293Z,7.13
2023-02-12T16:56:18.844Z,9.98
2023-02-12T16:58:50.714Z,9.48
2023-02-12T17:01:23.777Z,10.60
2023-02-12T17:03:53.003Z,16.10
2023-02-12T17:06:23.025Z,13.35
2023-02-12T17:08:51.550Z,12.38
2023-02-12T17:11:20.309Z,21.08
2023-02-12T17:13:51.639Z,18.08
2023-02-12T17:16:31.144Z,16.80
2023-02-12T17:19:00.114Z,9.77
2023-02-12T17:21:32.341Z,12.40
2023-02-12T17:24:00.588Z,8.98
2023-02-12T17:26:28.766Z,17.75
2023-02-12T17:29:05.165Z,13.75
2023-02-12T17:31:33.841Z,21.45
2023-02-12T17:34:02.644Z,15.82
2023-02-12T17:36:30.861Z,26.23
2023-02-12T17:38:59.029Z,20.50
2023-02-12T17:41:27.335Z,8.10
2023-02-12T17:43:55.508Z,10.45
2023-02-12T17:46:29.992Z,10.25
2023-02-12T17:48:58.666Z,8.15
2023-02-12T17:51:27.160Z,14.73
2023-02-12T17:53:55.421Z,11.65
2023-02-12T17:56:25.689Z,14.07
2023-02-12T17:58:54.481Z,16.60
2023-02-12T18:01:23.970Z,11.77
2023-02-12T18:03:55.926Z,13.95
2023-02-12T18:06:26.449Z,9.73
2023-02-12T18:08:55.479Z,8.02
2023-02-12T18:11:25.266Z,6.35
2023-02-12T18:13:55.714Z,8.57
2023-02-12T18:16:25.366Z,8.60
2023-02-12T18:18:57.066Z,7.90
2023-02-12T18:21:25.309Z,9.65
2023-02-12T18:23:56.179Z,7.57
2023-02-12T18:26:24.656Z,8.88
2023-02-12T18:28:54.060Z,8.75
2023-02-12T18:31:24.043Z,15.50
2023-02-12T18:33:55.710Z,11.32
2023-02-12T18:36:24.498Z,16.88
2023-02-12T18:38:53.568Z,13.65
2023-02-12T18:41:24.165Z,12.20
2023-02-12T18:43:53.301Z,15.32
2023-02-12T18:46:24.285Z,11.80
2023-02-12T18:48:55.812Z,12.82
2023-02-12T18:51:28.835Z,12.23
2023-02-12T18:54:01.225Z,9.95
2023-02-12T18:56:30.721Z,21.58
2023-02-12T18:59:00.491Z,23.92
2023-02-12T19:01:29.628Z,15.40
2023-02-12T19:04:00.146Z,13.70
2023-02-12T19:06:30.612Z,13.70
2023-02-12T19:08:59.666Z,16.10
2023-02-12T19:11:29.069Z,18.17
2023-02-12T19:13:57.356Z,16.13
2023-02-12T19:16:26.348Z,16.75
2023-02-12T19:19:01.086Z,13.18
2023-02-12T19:21:35.242Z,11.23
2023-02-12T19:24:05.325Z,31.50
2023-02-12T19:26:34.810Z,50.55
2023-02-12T19:29:04.174Z,56.15
2023-02-12T19:31:36.823Z,87.38
2023-02-12T19:34:07.184Z,87.50
2023-02-12T19:36:39.733Z,72.38
2023-02-12T19:39:08.557Z,50.55
2023-02-12T19:41:40.822Z,54.45
2023-02-12T19:44:20.246Z,38.13
2023-02-12T19:46:49.117Z,56.85
2023-02-12T19:49:19.601Z,41.80
2023-02-12T19:51:49.908Z,45.08
2023-02-12T19:54:19.602Z,44.30
2023-02-12T19:56:48.523Z,43.17
2023-02-12T19:59:18.400Z,64.72
2023-02-12T20:01:47.702Z,33.40
2023-02-12T20:04:20.260Z,35.60
2023-02-12T20:06:50.910Z,30.50
2023-02-12T20:09:23.423Z,28.63
2023-02-12T20:11:54.880Z,38.00
2023-02-12T20:14:23.074Z,37.45
2023-02-12T20:16:51.755Z,74.97
2023-02-12T20:19:22.996Z,83.63
2023-02-12T20:21:55.867Z,86.97
2023-02-12T20:24:29.579Z,92.88
2023-02-12T20:26:58.875Z,78.03
2023-02-12T20:29:27.706Z,53.08
2023-02-12T20:31:58.592Z,61.38
2023-02-12T20:34:26.860Z,50.72
2023-02-12T20:36:56.401Z,43.53
2023-02-12T20:39:24.672Z,56.42
2023-02-12T20:41:52.864Z,52.28
2023-02-12T20:44:22.775Z,55.03
2023-02-12T20:46:56.120Z,42.50
2023-02-12T20:49:25.812Z,33.25
2023-02-12T20:51:54.065Z,31.63
2023-02-12T20:54:23.593Z,21.17
2023-02-12T20:56:52.268Z,16.83
2023-02-12T20:59:20.670Z,27.08
2023-02-12T21:01:48.907Z,39.75
2023-02-12T21:04:20.613Z,42.78
2023-02-12T21:06:49.327Z,53.88
2023-02-12T21:09:20.216Z,36.90
2023-02-12T21:11:49.956Z,33.10
2023-02-12T21:14:22.556Z,33.08
2023-02-12T21:16:51.860Z,42.45
2023-02-12T21:19:21.524Z,31.23
2023-02-12T21:21:49.944Z,33.75
2023-02-12T21:24:20.163Z,28.67
2023-02-12T21:26:51.732Z,31.13
2023-02-12T21:29:20.447Z,13.98
2023-02-12T21:31:50.322Z,21.88
2023-02-12T21:34:20.918Z,20.50
2023-02-12T21:36:50.537Z,16.60
2023-02-12T21:39:24.658Z,22.60
2023-02-12T21:41:56.321Z,40.83
2023-02-12T21:44:26.188Z,46.00
2023-02-12T21:46:55.222Z,41.75
2023-02-12T21:49:28.844Z,34.00
2023-02-12T21:51:59.403Z,19.20
2023-02-12T21:54:28.945Z,18.90
2023-02-12T21:56:58.980Z,26.52
2023-02-12T21:59:29.025Z,26.50
2023-02-12T22:01:59.056Z,34.10
2023-02-12T22:04:27.773Z,34.70
2023-02-12T22:07:02.931Z,41.88
2023-02-12T22:09:31.140Z,39.33
2023-02-12T22:12:00.745Z,39.72
2023-02-12T22:14:29.039Z,30.92
2023-02-12T22:16:57.197Z,49.90
2023-02-12T22:19:25.509Z,63.10
2023-02-12T22:21:53.903Z,52.58
2023-02-12T22:24:22.681Z,43.78
2023-02-12T22:26:50.889Z,52.30
2023-02-12T22:29:22.823Z,49.05
2023-02-12T22:31:51.236Z,51.83
2023-02-12T22:34:19.997Z,40.83
2023-02-12T22:36:49.867Z,59.50
2023-02-12T22:39:18.590Z,41.28
2023-02-12T22:41:46.910Z,52.78
2023-02-12T22:44:16.474Z,43.47
2023-02-12T22:46:46.231Z,38.67
2023-02-12T22:49:16.619Z,40.20
2023-02-12T22:51:44.977Z,40.55
2023-02-12T22:54:16.601Z,40.28
2023-02-12T22:56:45.535Z,31.90
2023-02-12T22:59:14.136Z,32.38
2023-02-12T23:01:44.943Z,27.42
2023-02-12T23:04:18.201Z,30.75
2023-02-12T23:06:46.840Z,29.95
2023-02-12T23:09:20.179Z,30.65
2023-02-12T23:11:50.467Z,21.33
2023-02-12T23:14:19.459Z,18.73
2023-02-12T23:16:49.281Z,17.00
2023-02-12T23:19:17.596Z,32.60
2023-02-12T23:21:45.818Z,21.83
2023-02-12T23:24:15.502Z,20.85
2023-02-12T23:26:44.185Z,26.00
2023-02-12T23:29:12.672Z,22.17
2023-02-12T23:31:41.212Z,31.90
2023-02-12T23:34:10.928Z,30.00
2023-02-12T23:36:39.186Z,27.15
2023-02-12T23:39:07.365Z,28.55
2023-02-12T23:41:37.892Z,26.25
2023-02-12T23:44:06.488Z,22.20
2023-02-12T23:46:34.679Z,27.65
2023-02-12T23:49:02.931Z,23.80
2023-02-12T23:51:32.932Z,21.15
2023-02-12T23:54:01.151Z,20.13
2023-02-12T23:56:29.564Z,21.80
2023-02-12T23:58:58.239Z,29.45
